createdAt,value
2018-08-17T00:01:25.049Z,1016.49
2018-08-17T00:02:51.154Z,1016.47
2018-08-17T00:04:17.953Z,1016.47
2018-08-17T00:05:45.198Z,1016.47
2018-08-17T00:07:12.838Z,1016.48
2018-08-17T00:08:40.360Z,1016.48
2018-08-17T00:10:06.972Z,1016.48
2018-08-17T00:11:33.545Z,1016.49
2018-08-17T00:12:59.597Z,1016.47
2018-08-17T00:14:27.068Z,1016.45
2018-08-17T00:15:55.412Z,1016.46
2018-08-17T00:17:21.142Z,1016.42
2018-08-17T00:18:48.567Z,1016.43
2018-08-17T00:20:15.449Z,1016.42
2018-08-17T00:21:41.544Z,1016.41
2018-08-17T00:23:09.187Z,1016.42
2018-08-17T00:24:36.552Z,1016.42
2018-08-17T00:26:04.017Z,1016.41
2018-08-17T00:27:31.531Z,1016.41
2018-08-17T00:28:59.167Z,1016.42
2018-08-17T00:30:26.590Z,1016.43
2018-08-17T00:31:54.136Z,1016.43
2018-08-17T00:33:21.403Z,1016.41
2018-08-17T00:34:48.790Z,1016.41
2018-08-17T00:36:16.353Z,1016.42
2018-08-17T00:37:43.640Z,1016.43
2018-08-17T00:39:10.081Z,1016.46
2018-08-17T00:40:37.936Z,1016.49
2018-08-17T00:42:05.366Z,1016.52
2018-08-17T00:43:32.705Z,1016.53
2018-08-17T00:45:00.202Z,1016.54
2018-08-17T00:46:27.736Z,1016.54
2018-08-17T00:47:55.175Z,1016.55
2018-08-17T00:49:22.376Z,1016.54
2018-08-17T00:50:49.294Z,1016.53
2018-08-17T00:52:16.910Z,1016.54
2018-08-17T00:53:43.287Z,1016.56
2018-08-17T00:55:10.706Z,1016.54
2018-08-17T00:56:38.119Z,1016.56
2018-08-17T00:58:05.475Z,1016.57
2018-08-17T00:59:33.224Z,1016.58
2018-08-17T01:01:00.699Z,1016.59
2018-08-17T01:02:28.232Z,1016.56
2018-08-17T01:03:56.067Z,1016.59
2018-08-17T01:05:23.443Z,1016.59
2018-08-17T01:06:50.517Z,1016.59
2018-08-17T01:08:17.894Z,1016.58
2018-08-17T01:09:45.331Z,1016.57
2018-08-17T01:11:12.320Z,1016.59
2018-08-17T01:12:39.644Z,1016.62
2018-08-17T01:14:07.259Z,1016.63
2018-08-17T01:15:34.571Z,1016.63
2018-08-17T01:17:02.042Z,1016.61
2018-08-17T01:18:29.622Z,1016.62
2018-08-17T01:19:56.585Z,1016.60
2018-08-17T01:21:24.034Z,1016.65
2018-08-17T01:22:51.549Z,1016.68
2018-08-17T01:24:18.991Z,1016.69
2018-08-17T01:25:46.572Z,1016.73
2018-08-17T01:27:14.111Z,1016.73
2018-08-17T01:28:41.679Z,1016.74
2018-08-17T01:30:09.197Z,1016.74
2018-08-17T01:31:36.720Z,1016.75
2018-08-17T01:33:03.454Z,1016.74
2018-08-17T01:34:30.830Z,1016.74
2018-08-17T01:35:58.548Z,1016.72
2018-08-17T01:37:25.913Z,1016.73
2018-08-17T01:38:52.814Z,1016.73
2018-08-17T01:40:19.669Z,1016.73
2018-08-17T01:41:47.117Z,1016.73
2018-08-17T01:43:14.753Z,1016.70
2018-08-17T01:44:41.418Z,1016.71
2018-08-17T01:46:09.003Z,1016.70
2018-08-17T01:47:35.573Z,1016.72
2018-08-17T01:49:03.058Z,1016.73
2018-08-17T01:50:30.640Z,1016.75
2018-08-17T01:51:57.835Z,1016.76
2018-08-17T01:53:25.389Z,1016.78
2018-08-17T01:54:52.841Z,1016.77
2018-08-17T01:56:20.389Z,1016.79
2018-08-17T01:57:47.969Z,1016.79
2018-08-17T01:59:15.397Z,1016.76
2018-08-17T02:00:42.878Z,1016.81
2018-08-17T02:02:10.573Z,1016.83
2018-08-17T02:03:37.890Z,1016.84
2018-08-17T02:05:05.513Z,1016.80
2018-08-17T02:06:33.058Z,1016.82
2018-08-17T02:08:00.451Z,1016.79
2018-08-17T02:09:27.960Z,1016.76
2018-08-17T02:10:54.679Z,1016.76
2018-08-17T02:12:22.348Z,1016.76
2018-08-17T02:13:49.887Z,1016.76
2018-08-17T02:15:17.555Z,1016.76
2018-08-17T02:16:45.035Z,1016.74
2018-08-17T02:18:12.382Z,1016.75
2018-08-17T02:19:39.431Z,1016.77
2018-08-17T02:21:06.758Z,1016.78
2018-08-17T02:22:34.172Z,1016.79
2018-08-17T02:24:01.936Z,1016.77
2018-08-17T02:25:29.298Z,1016.78
2018-08-17T02:26:55.983Z,1016.80
2018-08-17T02:28:23.540Z,1016.82
2018-08-17T02:29:50.101Z,1016.83
2018-08-17T02:31:17.459Z,1016.85
2018-08-17T02:32:44.951Z,1016.87
2018-08-17T02:34:12.550Z,1016.88
2018-08-17T02:35:40.083Z,1016.86
2018-08-17T02:37:07.799Z,1016.85
2018-08-17T02:38:35.506Z,1016.84
2018-08-17T02:40:02.261Z,1016.80
2018-08-17T02:41:29.772Z,1016.77
2018-08-17T02:42:57.222Z,1016.76
2018-08-17T05:52:54.814Z,1017.51
2018-08-17T05:54:21.408Z,1017.46
2018-08-17T05:55:47.811Z,1017.46
2018-08-17T05:57:15.058Z,1017.47
2018-08-17T05:58:42.969Z,1017.46
2018-08-17T06:00:10.449Z,1017.42
2018-08-17T06:01:38.060Z,1017.41
2018-08-17T06:03:05.559Z,1017.41
2018-08-17T06:04:32.485Z,1017.42
2018-08-17T06:06:00.107Z,1017.43
2018-08-17T06:07:27.640Z,1017.44
2018-08-17T06:08:55.217Z,1017.43
2018-08-17T06:10:22.828Z,1017.41
2018-08-17T06:11:50.374Z,1017.41
2018-08-17T06:13:17.755Z,1017.36
2018-08-17T06:14:45.231Z,1017.36
2018-08-17T06:16:12.722Z,1017.39
2018-08-17T06:17:40.357Z,1017.38
2018-08-17T06:19:06.901Z,1017.39
2018-08-17T06:20:34.337Z,1017.38
2018-08-17T06:22:01.860Z,1017.36
2018-08-17T06:23:29.523Z,1017.37
2018-08-17T06:24:56.942Z,1017.36
2018-08-17T06:26:24.486Z,1017.36
2018-08-17T06:27:51.885Z,1017.36
2018-08-17T06:29:18.556Z,1017.36
2018-08-17T06:30:46.124Z,1017.37
2018-08-17T06:32:13.929Z,1017.36
2018-08-17T06:33:41.630Z,1017.40
2018-08-17T06:35:09.231Z,1017.40
2018-08-17T06:36:36.791Z,1017.41
2018-08-17T06:38:04.493Z,1017.43
2018-08-17T06:39:31.288Z,1017.41
2018-08-17T06:40:58.592Z,1017.41
2018-08-17T06:42:26.226Z,1017.43
2018-08-17T06:43:53.634Z,1017.43
2018-08-17T06:45:20.899Z,1017.44
2018-08-17T06:46:48.479Z,1017.47
2018-08-17T06:48:15.106Z,1017.47
2018-08-17T06:49:42.765Z,1017.48
2018-08-17T06:51:10.455Z,1017.48
2018-08-17T06:52:37.816Z,1017.44
2018-08-17T06:54:05.321Z,1017.43
2018-08-17T06:55:32.712Z,1017.42
2018-08-17T06:57:00.357Z,1017.43
2018-08-17T06:58:26.886Z,1017.41
2018-08-17T06:59:54.432Z,1017.42
2018-08-17T07:01:21.554Z,1017.41
2018-08-17T07:02:49.069Z,1017.41
2018-08-17T07:04:16.327Z,1017.39
2018-08-17T07:05:43.995Z,1017.40
2018-08-17T07:07:11.662Z,1017.42
2018-08-17T07:08:38.227Z,1017.43
2018-08-17T07:10:05.694Z,1017.43
2018-08-17T07:11:33.197Z,1017.45
2018-08-17T07:13:00.753Z,1017.46
2018-08-17T07:14:28.284Z,1017.46
2018-08-17T07:15:55.913Z,1017.48
2018-08-17T07:17:23.464Z,1017.50
2018-08-17T07:18:51.072Z,1017.50
2018-08-17T07:20:18.375Z,1017.51
2018-08-17T07:21:45.036Z,1017.55
2018-08-17T07:23:12.689Z,1017.57
2018-08-17T07:24:40.228Z,1017.57
2018-08-17T07:26:07.897Z,1017.60
2018-08-17T07:27:35.517Z,1017.60
2018-08-17T07:29:02.265Z,1017.61
2018-08-17T07:30:29.595Z,1017.63
2018-08-17T07:31:56.508Z,1017.63
2018-08-17T07:33:23.733Z,1017.64
2018-08-17T07:34:50.961Z,1017.66
2018-08-17T07:36:17.764Z,1017.69
2018-08-17T07:37:44.490Z,1017.68
2018-08-17T07:39:12.070Z,1017.70
2018-08-17T07:40:38.817Z,1017.72
2018-08-17T07:42:05.673Z,1017.70
2018-08-17T07:43:33.192Z,1017.72
2018-08-17T07:45:00.819Z,1017.70
2018-08-17T07:46:27.180Z,1017.71
2018-08-17T07:47:54.563Z,1017.67
2018-08-17T07:49:22.248Z,1017.68
2018-08-17T07:50:49.846Z,1017.68
2018-08-17T07:52:17.532Z,1017.67
2018-08-17T07:53:45.254Z,1017.67
2018-08-17T07:55:12.867Z,1017.66
2018-08-17T07:56:40.435Z,1017.66
2018-08-17T07:58:08.018Z,1017.69
2018-08-17T07:59:35.728Z,1017.68
2018-08-17T08:01:03.492Z,1017.67
2018-08-17T08:02:29.995Z,1017.67
2018-08-17T08:03:56.498Z,1017.67
2018-08-17T08:05:21.165Z,1017.67
2018-08-17T08:06:51.270Z,1017.67
2018-08-17T08:08:18.781Z,1017.68
2018-08-17T08:09:46.286Z,1017.71
2018-08-17T08:11:13.966Z,1017.72
2018-08-17T08:12:41.584Z,1017.73
2018-08-17T08:14:09.310Z,1017.74
2018-08-17T08:15:37.056Z,1017.74
2018-08-17T08:17:04.758Z,1017.77
2018-08-17T08:18:31.487Z,1017.74
2018-08-17T08:19:58.931Z,1017.78
2018-08-17T08:21:25.880Z,1017.76
2018-08-17T08:22:53.155Z,1017.76
2018-08-17T08:24:20.526Z,1017.75
2018-08-17T08:25:47.837Z,1017.77
2018-08-17T08:27:15.351Z,1017.78
2018-08-17T08:28:43.000Z,1017.77
2018-08-17T08:30:10.731Z,1017.78
2018-08-17T08:31:38.364Z,1017.77
2018-08-17T08:33:05.130Z,1017.79
2018-08-17T08:34:32.281Z,1017.78
2018-08-17T08:35:59.956Z,1017.80
2018-08-17T08:37:27.003Z,1017.79
2018-08-17T08:38:54.035Z,1017.78
2018-08-17T08:40:21.785Z,1017.76
2018-08-17T08:41:48.468Z,1017.81
2018-08-17T08:43:16.146Z,1017.84
2018-08-17T08:44:43.743Z,1017.84
2018-08-17T08:46:11.392Z,1017.83
2018-08-17T08:47:39.079Z,1017.84
2018-08-17T08:49:05.548Z,1017.78
2018-08-17T08:50:33.192Z,1017.79
2018-08-17T08:52:00.916Z,1017.73
2018-08-17T08:53:28.335Z,1017.71
2018-08-17T08:54:55.797Z,1017.75
2018-08-17T08:56:23.384Z,1017.77
2018-08-17T08:57:50.966Z,1017.86
2018-08-17T08:59:18.298Z,1017.90
2018-08-17T09:00:45.095Z,1017.89
2018-08-17T09:02:12.764Z,1017.90
2018-08-17T09:03:40.422Z,1017.91
2018-08-17T09:05:07.352Z,1017.93
2018-08-17T09:06:34.922Z,1018.00
2018-08-17T09:08:02.710Z,1018.01
2018-08-17T09:09:30.169Z,1018.02
2018-08-17T09:10:57.807Z,1018.04
2018-08-17T09:12:25.487Z,1018.05
2018-08-17T09:13:52.806Z,1018.05
2018-08-17T09:15:20.482Z,1018.06
2018-08-17T09:16:47.732Z,1018.14
2018-08-17T09:18:14.999Z,1018.15
2018-08-17T09:19:42.707Z,1018.18
2018-08-17T09:21:10.410Z,1018.18
2018-08-17T09:22:38.035Z,1018.14
2018-08-17T09:24:05.568Z,1018.12
2018-08-17T09:25:32.808Z,1018.10
2018-08-17T09:27:00.322Z,1018.12
2018-08-17T09:28:28.054Z,1018.10
2018-08-17T09:29:55.701Z,1018.07
2018-08-17T09:31:23.148Z,1018.01
2018-08-17T09:32:50.311Z,1018.02
2018-08-17T09:34:17.891Z,1018.01
2018-08-17T09:35:45.530Z,1018.01
2018-08-17T09:37:13.208Z,1017.98
2018-08-17T09:38:40.833Z,1017.95
2018-08-17T09:40:08.482Z,1017.92
2018-08-17T09:41:35.944Z,1017.97
2018-08-17T09:43:03.038Z,1018.00
2018-08-17T09:44:30.701Z,1018.02
2018-08-17T09:45:58.330Z,1018.06
2018-08-17T09:47:25.949Z,1018.05
2018-08-17T09:48:52.929Z,1018.06
2018-08-17T09:50:20.107Z,1018.07
2018-08-17T09:51:47.568Z,1018.10
2018-08-17T09:53:14.234Z,1018.08
2018-08-17T09:54:41.998Z,1018.09
2018-08-17T09:56:09.595Z,1018.05
2018-08-17T09:57:37.172Z,1018.03
2018-08-17T09:59:04.723Z,1018.02
2018-08-17T10:00:32.323Z,1018.01
2018-08-17T10:01:59.978Z,1018.02
2018-08-17T10:03:26.715Z,1018.03
2018-08-17T10:04:53.422Z,1018.05
2018-08-17T10:06:20.869Z,1018.07
2018-08-17T10:07:48.462Z,1018.06
2018-08-17T10:09:16.164Z,1018.05
2018-08-17T10:10:43.857Z,1018.08
2018-08-17T10:12:11.479Z,1018.11
2018-08-17T10:13:39.192Z,1018.12
2018-08-17T10:15:06.644Z,1018.12
2018-08-17T10:16:34.314Z,1018.10
2018-08-17T10:18:02.028Z,1018.11
2018-08-17T10:19:29.008Z,1018.04
2018-08-17T10:20:56.585Z,1018.07
2018-08-17T10:22:24.133Z,1018.07
2018-08-17T10:23:51.764Z,1018.07
2018-08-17T10:25:19.373Z,1018.07
2018-08-17T10:26:47.028Z,1018.08
2018-08-17T10:28:14.642Z,1018.07
2018-08-17T10:29:42.280Z,1018.08
2018-08-17T10:31:09.088Z,1018.08
2018-08-17T10:32:36.715Z,1018.11
2018-08-17T10:34:03.988Z,1018.17
2018-08-17T10:35:31.637Z,1018.18
2018-08-17T10:36:59.184Z,1018.22
2018-08-17T10:38:26.727Z,1018.22
2018-08-17T10:39:54.325Z,1018.19
2018-08-17T10:41:21.900Z,1018.21
2018-08-17T10:42:49.610Z,1018.17
2018-08-17T10:44:17.336Z,1018.15
2018-08-17T10:45:44.007Z,1018.15
2018-08-17T10:47:11.668Z,1018.14
2018-08-17T10:48:39.343Z,1018.16
2018-08-17T10:50:06.832Z,1018.20
2018-08-17T10:51:34.492Z,1018.18
2018-08-17T10:53:01.655Z,1018.18
2018-08-17T10:54:29.342Z,1018.14
2018-08-17T10:55:56.981Z,1018.17
2018-08-17T10:57:24.288Z,1018.17
2018-08-17T10:58:51.710Z,1018.24
2018-08-17T11:00:19.320Z,1018.17
2018-08-17T11:01:46.990Z,1018.20
2018-08-17T11:03:13.758Z,1018.14
2018-08-17T11:04:40.817Z,1018.15
2018-08-17T11:06:07.794Z,1018.12
2018-08-17T11:07:34.820Z,1018.11
2018-08-17T11:09:02.499Z,1018.12
2018-08-17T11:10:30.087Z,1018.16
2018-08-17T11:11:58.008Z,1018.20
2018-08-17T11:13:25.431Z,1018.18
2018-08-17T11:14:51.949Z,1018.13
2018-08-17T11:16:19.713Z,1018.13
2018-08-17T11:17:47.508Z,1018.15
2018-08-17T11:19:15.199Z,1018.15
2018-08-17T11:20:42.778Z,1018.18
2018-08-17T11:22:10.407Z,1018.13
2018-08-17T11:23:38.188Z,1018.18
2018-08-17T11:25:05.775Z,1018.17
2018-08-17T11:26:33.000Z,1018.16
2018-08-17T11:28:00.614Z,1018.18
2018-08-17T11:29:28.365Z,1018.12
2018-08-17T11:30:56.132Z,1018.15
2018-08-17T11:32:23.337Z,1018.11
2018-08-17T11:33:51.106Z,1018.12
2018-08-17T11:35:18.675Z,1018.12
2018-08-17T11:36:46.251Z,1018.12
2018-08-17T11:38:14.039Z,1018.10
2018-08-17T11:39:41.790Z,1018.08
2018-08-17T11:41:09.463Z,1018.10
2018-08-17T11:42:37.147Z,1018.11
2018-08-17T11:44:04.854Z,1018.15
2018-08-17T11:45:31.854Z,1018.14
2018-08-17T11:46:59.651Z,1018.15
2018-08-17T11:48:27.457Z,1018.16
2018-08-17T11:49:55.140Z,1018.18
2018-08-17T11:51:22.623Z,1018.21
2018-08-17T11:52:50.223Z,1018.23
2018-08-17T11:54:17.935Z,1018.28
2018-08-17T11:55:44.561Z,1018.28
2018-08-17T11:57:12.318Z,1018.29
2018-08-17T11:58:39.996Z,1018.24
2018-08-17T12:00:07.519Z,1018.23
2018-08-17T12:01:34.690Z,1018.19
2018-08-17T12:03:01.825Z,1018.19
2018-08-17T12:04:28.875Z,1018.15
2018-08-17T12:05:55.599Z,1018.17
2018-08-17T12:07:23.163Z,1018.23
2018-08-17T12:08:50.841Z,1018.20
2018-08-17T12:10:18.020Z,1018.25
2018-08-17T12:11:45.701Z,1018.23
2018-08-17T12:13:13.430Z,1018.24
2018-08-17T12:14:40.469Z,1018.23
2018-08-17T12:16:08.116Z,1018.23
2018-08-17T12:17:35.834Z,1018.22
2018-08-17T12:19:02.998Z,1018.22
2018-08-17T12:20:30.112Z,1018.17
2018-08-17T12:21:57.655Z,1018.17
2018-08-17T12:23:25.403Z,1018.14
2018-08-17T12:24:53.282Z,1018.15
2018-08-17T12:26:20.005Z,1018.15
2018-08-17T12:27:46.773Z,1018.14
2018-08-17T12:29:14.471Z,1018.16
2018-08-17T12:30:42.114Z,1018.17
2018-08-17T12:32:10.003Z,1018.20
2018-08-17T12:33:36.656Z,1018.17
2018-08-17T12:35:04.239Z,1018.17
2018-08-17T12:36:31.668Z,1018.19
2018-08-17T12:37:59.364Z,1018.20
2018-08-17T12:39:26.547Z,1018.24
2018-08-17T12:40:54.103Z,1018.24
2018-08-17T12:42:21.832Z,1018.21
2018-08-17T12:43:49.204Z,1018.16
2018-08-17T12:45:16.866Z,1018.19
2018-08-17T12:46:44.478Z,1018.19
2018-08-17T12:48:12.032Z,1018.18
2018-08-17T12:49:39.770Z,1018.20
2018-08-17T12:51:07.341Z,1018.21
2018-08-17T12:52:35.103Z,1018.24
2018-08-17T12:54:02.790Z,1018.24
2018-08-17T12:55:30.055Z,1018.26
2018-08-17T12:56:57.779Z,1018.24
2018-08-17T12:58:25.451Z,1018.23
2018-08-17T12:59:53.119Z,1018.24
2018-08-17T13:01:20.531Z,1018.28
2018-08-17T13:02:47.467Z,1018.28
2018-08-17T13:04:14.290Z,1018.26
2018-08-17T13:05:41.959Z,1018.20
2018-08-17T13:07:08.951Z,1018.18
2018-08-17T13:08:36.608Z,1018.15
2018-08-17T13:10:04.253Z,1018.18
2018-08-17T13:11:31.303Z,1018.20
2018-08-17T13:12:58.607Z,1018.19
2018-08-17T13:14:26.689Z,1018.18
2018-08-17T13:15:53.142Z,1018.19
2018-08-17T13:17:20.771Z,1018.16
2018-08-17T13:18:48.184Z,1018.19
2018-08-17T13:20:15.831Z,1018.15
2018-08-17T13:21:43.517Z,1018.14
2018-08-17T13:23:11.235Z,1018.17
2018-08-17T13:24:38.860Z,1018.16
2018-08-17T13:26:06.530Z,1018.15
2018-08-17T13:27:34.234Z,1018.19
2018-08-17T13:29:01.751Z,1018.19
2018-08-17T13:30:29.527Z,1018.26
2018-08-17T13:31:57.144Z,1018.30
2018-08-17T13:33:24.846Z,1018.34
2018-08-17T13:34:52.471Z,1018.42
2018-08-17T13:36:20.026Z,1018.49
2018-08-17T13:37:47.763Z,1018.52
2018-08-17T13:39:15.338Z,1018.52
2018-08-17T13:40:42.896Z,1018.52
2018-08-17T13:42:09.933Z,1018.50
2018-08-17T13:43:37.335Z,1018.52
2018-08-17T13:45:05.032Z,1018.52
2018-08-17T13:46:32.766Z,1018.57
2018-08-17T13:48:00.550Z,1018.61
2018-08-17T13:49:27.666Z,1018.62
2018-08-17T13:50:55.221Z,1018.61
2018-08-17T13:52:22.599Z,1018.61
2018-08-17T13:53:50.188Z,1018.61
2018-08-17T13:55:17.993Z,1018.64
2018-08-17T13:56:45.724Z,1018.63
2018-08-17T13:58:13.426Z,1018.62
2018-08-17T13:59:39.947Z,1018.60
2018-08-17T14:01:06.667Z,1018.66
2018-08-17T14:02:34.418Z,1018.63
2018-08-17T14:04:01.895Z,1018.66
2018-08-17T14:05:28.935Z,1018.69
2018-08-17T14:06:56.557Z,1018.70
2018-08-17T14:08:24.146Z,1018.69
2018-08-17T14:09:51.546Z,1018.73
2018-08-17T14:11:19.201Z,1018.73
2018-08-17T14:12:46.783Z,1018.76
2018-08-17T14:14:14.567Z,1018.75
2018-08-17T14:15:41.479Z,1018.76
2018-08-17T14:17:09.030Z,1018.75
2018-08-17T14:18:35.982Z,1018.76
2018-08-17T14:20:03.753Z,1018.75
2018-08-17T14:21:31.393Z,1018.78
2018-08-17T14:22:59.105Z,1018.80
2018-08-17T14:24:26.776Z,1018.79
2018-08-17T14:25:54.409Z,1018.78
2018-08-17T14:27:21.743Z,1018.79
2018-08-17T14:28:49.072Z,1018.78
2018-08-17T14:30:16.580Z,1018.84
2018-08-17T14:31:44.144Z,1018.83
2018-08-17T14:33:11.733Z,1018.81
2018-08-17T14:34:39.446Z,1018.79
2018-08-17T14:36:07.073Z,1018.77
2018-08-17T14:37:34.790Z,1018.76
2018-08-17T14:39:02.269Z,1018.74
2018-08-17T14:40:28.765Z,1018.74
2018-08-17T14:41:55.476Z,1018.78
2018-08-17T14:43:23.061Z,1018.76
2018-08-17T14:44:50.208Z,1018.75
2018-08-17T14:46:18.080Z,1018.76
2018-08-17T14:47:45.630Z,1018.78
2018-08-17T14:49:13.300Z,1018.78
2018-08-17T14:50:40.859Z,1018.83
2018-08-17T14:52:07.925Z,1018.83
2018-08-17T14:53:35.444Z,1018.84
2018-08-17T14:55:02.521Z,1018.83
2018-08-17T14:56:30.188Z,1018.82
2018-08-17T14:57:56.892Z,1018.85
2018-08-17T14:59:23.769Z,1018.86
2018-08-17T15:00:51.102Z,1018.88
2018-08-17T15:02:18.170Z,1018.91
2018-08-17T15:03:45.355Z,1018.94
2018-08-17T15:05:12.997Z,1018.97
2018-08-17T15:06:40.728Z,1018.98
2018-08-17T15:08:08.262Z,1019.03
2018-08-17T15:09:35.082Z,1019.07
2018-08-17T15:11:01.618Z,1019.07
2018-08-17T15:12:29.299Z,1019.09
2018-08-17T15:13:56.766Z,1019.09
2018-08-17T15:15:23.192Z,1019.10
2018-08-17T15:16:49.859Z,1019.07
2018-08-17T15:18:17.323Z,1019.13
2018-08-17T15:19:45.027Z,1019.13
2018-08-17T15:21:12.745Z,1019.17
2018-08-17T15:22:39.506Z,1019.16
2018-08-17T15:24:07.051Z,1019.16
2018-08-17T15:25:34.425Z,1019.12
2018-08-17T15:27:02.037Z,1019.13
2018-08-17T15:28:29.737Z,1019.13
2018-08-17T15:29:56.164Z,1019.16
2018-08-17T15:31:23.339Z,1019.19
2018-08-17T15:32:50.405Z,1019.26
2018-08-17T15:34:17.877Z,1019.31
2018-08-17T15:35:45.410Z,1019.35
2018-08-17T15:37:12.924Z,1019.36
2018-08-17T15:38:40.522Z,1019.38
2018-08-17T15:40:08.244Z,1019.42
2018-08-17T15:41:36.007Z,1019.42
2018-08-17T15:43:03.587Z,1019.43
2018-08-17T15:44:30.417Z,1019.41
2018-08-17T15:45:58.121Z,1019.44
2018-08-17T15:47:25.058Z,1019.48
2018-08-17T15:48:52.631Z,1019.51
2018-08-17T15:50:20.172Z,1019.56
2018-08-17T15:51:47.619Z,1019.54
2018-08-17T15:53:15.311Z,1019.53
2018-08-17T15:54:42.719Z,1019.52
2018-08-17T15:56:10.372Z,1019.55
2018-08-17T15:57:37.985Z,1019.53
2018-08-17T15:59:04.280Z,1019.51
2018-08-17T16:00:31.957Z,1019.47
2018-08-17T16:01:59.315Z,1019.48
2018-08-17T16:03:26.834Z,1019.48
2018-08-17T16:04:53.920Z,1019.47
2018-08-17T16:06:21.509Z,1019.47
2018-08-17T16:07:48.440Z,1019.46
2018-08-17T16:09:15.299Z,1019.45
2018-08-17T16:10:42.908Z,1019.46
2018-08-17T16:12:10.154Z,1019.45
2018-08-17T16:13:37.634Z,1019.46
2018-08-17T16:15:15.059Z,1019.46
2018-08-17T16:16:42.613Z,1019.44
2018-08-17T16:18:10.182Z,1019.48
2018-08-17T16:19:37.691Z,1019.47
2018-08-17T16:21:05.190Z,1019.50
2018-08-17T16:22:31.997Z,1019.49
2018-08-17T16:23:59.584Z,1019.49
2018-08-17T16:25:27.110Z,1019.50
2018-08-17T16:26:54.701Z,1019.49
2018-08-17T16:28:22.045Z,1019.53
2018-08-17T16:29:49.550Z,1019.53
2018-08-17T16:31:17.012Z,1019.53
2018-08-17T16:32:44.637Z,1019.55
2018-08-17T16:34:12.200Z,1019.52
2018-08-17T16:35:39.688Z,1019.52
2018-08-17T16:37:07.260Z,1019.52
2018-08-17T16:38:34.959Z,1019.51
2018-08-17T16:40:02.597Z,1019.51
2018-08-17T16:41:30.271Z,1019.54
2018-08-17T16:42:57.910Z,1019.56
2018-08-17T16:44:24.420Z,1019.60
2018-08-17T16:45:52.005Z,1019.64
2018-08-17T16:47:18.827Z,1019.75
2018-08-17T16:48:45.178Z,1019.79
2018-08-17T16:50:12.770Z,1019.77
2018-08-17T16:51:39.254Z,1019.78
2018-08-17T16:53:08.080Z,1019.81
2018-08-17T16:54:34.769Z,1019.82
2018-08-17T16:56:02.284Z,1019.84
2018-08-17T16:57:28.565Z,1019.80
2018-08-17T16:58:56.246Z,1019.87
2018-08-17T17:00:22.739Z,1019.90
2018-08-17T17:01:50.169Z,1019.90
2018-08-17T17:03:17.736Z,1019.92
2018-08-17T17:04:45.181Z,1019.92
2018-08-17T17:06:12.960Z,1019.90
2018-08-17T17:07:39.279Z,1019.94
2018-08-17T17:09:06.904Z,1019.97
2018-08-17T17:10:33.580Z,1019.94
2018-08-17T17:12:00.897Z,1019.91
2018-08-17T17:13:28.552Z,1019.94
2018-08-17T17:14:56.043Z,1019.93
2018-08-17T17:16:23.540Z,1019.95
2018-08-17T17:17:50.914Z,1019.93
2018-08-17T17:19:18.434Z,1019.91
2018-08-17T17:20:45.216Z,1019.97
2018-08-17T17:22:12.899Z,1019.96
2018-08-17T17:23:40.568Z,1019.98
2018-08-17T17:25:08.141Z,1020.00
2018-08-17T17:26:35.748Z,1019.99
2018-08-17T17:28:03.360Z,1019.99
2018-08-17T17:29:30.433Z,1020.02
2018-08-17T17:30:57.915Z,1020.01
2018-08-17T17:32:24.655Z,1020.03
2018-08-17T17:33:52.088Z,1020.04
2018-08-17T17:35:19.553Z,1020.04
2018-08-17T17:36:46.124Z,1020.04
2018-08-17T17:38:13.057Z,1020.05
2018-08-17T17:39:40.817Z,1020.02
2018-08-17T17:41:07.480Z,1020.02
2018-08-17T17:42:34.125Z,1020.04
2018-08-17T17:44:00.963Z,1020.03
2018-08-17T17:45:27.951Z,1020.04
2018-08-17T17:46:55.597Z,1020.04
2018-08-17T17:48:22.948Z,1020.02
2018-08-17T17:49:50.085Z,1020.01
2018-08-17T17:51:17.650Z,1020.01
2018-08-17T17:52:45.337Z,1020.02
2018-08-17T17:54:12.747Z,1020.03
2018-08-17T17:55:39.476Z,1020.04
2018-08-17T17:57:07.010Z,1020.04
2018-08-17T17:58:33.713Z,1020.07
2018-08-17T18:00:01.158Z,1020.08
2018-08-17T18:01:28.780Z,1020.07
2018-08-17T18:02:56.399Z,1020.13
2018-08-17T18:04:23.673Z,1020.10
2018-08-17T18:05:51.061Z,1020.10
2018-08-17T18:07:18.463Z,1020.12
2018-08-17T18:08:46.091Z,1020.14
2018-08-17T18:10:12.793Z,1020.17
2018-08-17T18:11:40.305Z,1020.18
2018-08-17T18:13:08.151Z,1020.21
2018-08-17T18:14:34.577Z,1020.21
2018-08-17T18:16:11.782Z,1020.20
2018-08-17T18:17:39.323Z,1020.23
2018-08-17T18:19:06.160Z,1020.25
2018-08-17T18:20:33.731Z,1020.29
2018-08-17T18:22:01.207Z,1020.32
2018-08-17T18:23:28.588Z,1020.35
2018-08-17T18:24:55.371Z,1020.38
2018-08-17T18:26:23.042Z,1020.40
2018-08-17T18:27:49.681Z,1020.41
2018-08-17T18:29:17.217Z,1020.41
2018-08-17T18:30:44.926Z,1020.43
2018-08-17T18:32:12.409Z,1020.42
2018-08-17T18:33:40.046Z,1020.41
2018-08-17T18:35:07.671Z,1020.45
2018-08-17T18:36:35.295Z,1020.46
2018-08-17T18:38:02.766Z,1020.47
2018-08-17T18:39:29.453Z,1020.47
2018-08-17T18:40:56.826Z,1020.46
2018-08-17T18:42:24.421Z,1020.48
2018-08-17T18:43:50.913Z,1020.49
2018-08-17T18:45:18.381Z,1020.49
2018-08-17T18:46:46.038Z,1020.52
2018-08-17T18:48:13.532Z,1020.51
2018-08-17T18:49:40.919Z,1020.51
2018-08-17T18:51:07.934Z,1020.53
2018-08-17T18:53:14.314Z,1020.52
2018-08-17T18:55:20.133Z,1020.55
2018-08-17T19:04:42.102Z,1020.56
2018-08-17T19:06:08.171Z,1020.54
2018-08-17T19:07:35.573Z,1020.54
2018-08-17T19:09:03.091Z,1020.56
2018-08-17T19:10:29.842Z,1020.55
2018-08-17T19:11:57.261Z,1020.55
2018-08-17T19:17:56.293Z,1020.55
2018-08-17T19:19:23.154Z,1020.58
2018-08-17T19:20:49.753Z,1020.58
2018-08-17T19:22:16.024Z,1020.58
2018-08-17T19:23:42.511Z,1020.59
2018-08-17T19:25:09.045Z,1020.60
2018-08-17T19:26:36.559Z,1020.61
2018-08-17T19:28:04.308Z,1020.62
2018-08-17T19:29:31.760Z,1020.63
2018-08-17T19:30:59.315Z,1020.66
2018-08-17T19:32:26.161Z,1020.70
2018-08-17T19:42:17.357Z,1020.80
2018-08-17T19:43:44.285Z,1020.80
2018-08-17T19:45:11.689Z,1020.79
2018-08-17T19:46:39.090Z,1020.83
2018-08-17T19:48:06.612Z,1020.86
2018-08-17T19:49:34.286Z,1020.87
2018-08-17T19:51:01.696Z,1020.89
2018-08-17T19:52:29.418Z,1020.87
2018-08-17T20:12:21.680Z,1021.08
2018-08-17T20:13:48.529Z,1021.12
2018-08-17T20:15:15.956Z,1021.12
2018-08-17T20:16:41.962Z,1021.13
2018-08-17T20:18:09.302Z,1021.14
2018-08-17T20:38:59.641Z,1021.26
2018-08-17T20:40:35.421Z,1021.28
2018-08-17T20:41:52.633Z,1021.29
2018-08-17T20:43:19.931Z,1021.31
2018-08-17T20:44:47.119Z,1021.30
2018-08-17T20:46:14.644Z,1021.34
2018-08-17T20:47:42.269Z,1021.33
2018-08-17T20:49:08.467Z,1021.35
2018-08-17T20:50:34.815Z,1021.36
2018-08-17T20:52:10.987Z,1021.38
2018-08-17T20:53:48.056Z,1021.38
2018-08-17T21:18:11.569Z,1021.54
2018-08-17T21:19:38.499Z,1021.52
2018-08-17T21:21:05.933Z,1021.50
2018-08-17T21:22:33.419Z,1021.50
2018-08-17T21:24:00.911Z,1021.50
2018-08-17T21:25:28.353Z,1021.48
2018-08-17T21:26:55.271Z,1021.49
2018-08-17T21:28:21.833Z,1021.50
2018-08-17T22:04:03.597Z,1021.82
2018-08-17T22:05:31.298Z,1021.84
2018-08-17T22:06:56.241Z,1021.84
2018-08-17T22:08:23.141Z,1021.87
2018-08-17T22:09:50.863Z,1021.87
2018-08-17T22:11:17.538Z,1021.90
2018-08-17T22:12:45.025Z,1021.92
2018-08-17T22:28:14.753Z,1022.08
2018-08-17T22:29:40.356Z,1022.08
2018-08-17T22:31:07.546Z,1022.09
2018-08-17T22:32:35.118Z,1022.09
2018-08-17T22:34:01.188Z,1022.09
2018-08-17T22:35:28.709Z,1022.09
2018-08-17T22:36:55.826Z,1022.10
2018-08-17T22:38:23.131Z,1022.13
2018-08-17T22:39:50.265Z,1022.16
2018-08-17T22:41:16.632Z,1022.16
2018-08-17T22:43:22.876Z,1022.19
